createdAt,value
2022-10-12T00:00:12.951Z,94578.41
2022-10-12T00:05:16.438Z,94584.50
2022-10-12T00:10:18.832Z,94581.16
2022-10-12T00:15:20.968Z,94589.91
2022-10-12T00:20:22.929Z,94594.06
2022-10-12T00:25:25.007Z,94587.47
2022-10-12T00:30:27.071Z,94580.31
2022-10-12T00:35:30.093Z,94585.59
2022-10-12T00:40:32.070Z,94580.47
2022-10-12T00:45:34.001Z,94576.19
2022-10-12T00:50:38.723Z,94576.88
2022-10-12T00:55:52.584Z,94577.66
2022-10-12T01:00:54.721Z,94554.31
2022-10-12T01:05:57.228Z,94565.34
2022-10-12T01:10:59.207Z,94569.84
2022-10-12T01:16:34.233Z,94559.78
2022-10-12T01:21:40.844Z,94561.16
2022-10-12T01:27:18.165Z,94564.38
2022-10-12T01:32:31.146Z,94559.38
2022-10-12T01:37:50.500Z,94540.00
2022-10-12T01:42:54.600Z,94556.00
2022-10-12T01:47:56.670Z,94559.84
2022-10-12T01:53:34.684Z,94560.06
2022-10-12T01:58:59.538Z,94561.63
2022-10-12T02:04:21.538Z,94553.16
2022-10-12T02:09:31.742Z,94546.56
2022-10-12T02:14:41.490Z,94552.94
2022-10-12T02:19:59.017Z,94550.81
2022-10-12T02:25:09.454Z,94549.47
2022-10-12T02:30:12.182Z,94550.81
2022-10-12T02:35:25.684Z,94553.88
2022-10-12T02:40:48.623Z,94560.22
2022-10-12T02:45:51.260Z,94555.88
2022-10-12T02:50:56.265Z,94551.59
2022-10-12T02:56:05.116Z,94559.91
2022-10-12T03:01:10.319Z,94565.47
2022-10-12T03:06:12.674Z,94566.50
2022-10-12T03:11:17.737Z,94565.03
2022-10-12T03:16:20.730Z,94564.25
2022-10-12T03:21:23.351Z,94574.75
2022-10-12T03:26:25.731Z,94578.66
2022-10-12T03:31:27.928Z,94583.75
2022-10-12T03:36:30.662Z,94584.66
2022-10-12T03:41:32.790Z,94590.03
2022-10-12T03:46:34.740Z,94591.22
2022-10-12T03:51:36.725Z,94580.72
2022-10-12T03:56:42.211Z,94584.75
2022-10-12T04:01:44.212Z,94597.59
2022-10-12T04:06:46.438Z,94589.06
2022-10-12T04:11:48.507Z,94596.63
2022-10-12T04:16:50.513Z,94610.03
2022-10-12T04:21:52.414Z,94610.50
2022-10-12T04:26:54.487Z,94609.47
2022-10-12T04:31:56.567Z,94630.66
2022-10-12T04:36:58.572Z,94628.81
2022-10-12T04:42:00.646Z,94638.34
2022-10-12T04:47:02.927Z,94643.72
2022-10-12T04:52:05.196Z,94642.28
2022-10-12T04:57:07.131Z,94641.56
2022-10-12T05:02:09.492Z,94648.94
2022-10-12T05:07:11.675Z,94651.97
2022-10-12T05:12:13.602Z,94662.69
2022-10-12T05:17:15.768Z,94662.22
2022-10-12T05:22:17.965Z,94658.66
2022-10-12T05:27:21.195Z,94661.31
2022-10-12T05:32:23.412Z,94673.16
2022-10-12T05:37:27.117Z,94676.13
2022-10-12T05:42:29.344Z,94672.22
2022-10-12T05:47:31.742Z,94680.56
2022-10-12T05:52:34.011Z,94672.88
2022-10-12T05:57:36.687Z,94686.47
2022-10-12T06:02:39.344Z,94673.72
2022-10-12T06:07:41.667Z,94667.44
2022-10-12T06:12:43.746Z,94669.03
2022-10-12T06:17:45.816Z,94665.75
2022-10-12T06:22:47.747Z,94670.19
2022-10-12T06:27:49.597Z,94667.97
2022-10-12T06:32:51.830Z,94678.69
2022-10-12T06:37:54.114Z,94681.50
2022-10-12T06:42:58.698Z,94680.69
2022-10-12T06:48:02.008Z,94686.28
2022-10-12T06:53:04.167Z,94692.72
2022-10-12T06:58:06.388Z,94702.66
2022-10-12T07:03:12.988Z,94705.16
2022-10-12T07:08:15.176Z,94715.53
2022-10-12T07:13:17.464Z,94713.31
2022-10-12T07:18:20.182Z,94712.47
2022-10-12T07:23:22.178Z,94725.69
2022-10-12T07:28:24.691Z,94724.72
2022-10-12T07:33:26.631Z,94736.34
2022-10-12T07:38:29.175Z,94732.78
2022-10-12T07:43:31.544Z,94728.03
2022-10-12T07:48:36.227Z,94727.31
2022-10-12T07:53:39.433Z,94739.31
2022-10-12T07:58:42.568Z,94726.66
2022-10-12T08:03:44.802Z,94722.31
2022-10-12T08:08:47.282Z,94732.38
2022-10-12T08:13:49.763Z,94732.97
2022-10-12T08:18:52.359Z,94730.88
2022-10-12T08:23:54.751Z,94737.63
2022-10-12T08:28:57.423Z,94735.16
2022-10-12T08:34:01.025Z,94735.03
2022-10-12T08:39:07.103Z,94735.72
2022-10-12T08:44:27.311Z,94732.38
2022-10-12T08:49:31.717Z,94739.84
2022-10-12T08:54:39.750Z,94729.13
2022-10-12T08:59:41.682Z,94725.22
2022-10-12T09:05:12.098Z,94710.03
2022-10-12T09:10:29.343Z,94705.47
2022-10-12T09:15:47.428Z,94702.97
2022-10-12T09:20:54.572Z,94711.50
2022-10-12T09:26:32.131Z,94706.31
2022-10-12T09:31:37.105Z,94706.78
2022-10-12T09:36:40.554Z,94701.88
2022-10-12T09:41:44.979Z,94693.56
2022-10-12T09:46:53.677Z,94692.06
2022-10-12T09:52:01.768Z,94691.28
2022-10-12T09:57:03.855Z,94704.47
2022-10-12T10:02:08.719Z,94705.25
2022-10-12T10:07:34.072Z,94695.09
2022-10-12T10:12:54.461Z,94709.88
2022-10-12T10:18:29.131Z,94706.75
2022-10-12T10:23:35.101Z,94699.97
2022-10-12T10:28:39.463Z,94697.13
2022-10-12T10:33:42.267Z,94699.03
2022-10-12T10:38:59.332Z,94700.41
2022-10-12T10:44:03.052Z,94704.91
2022-10-12T10:49:07.728Z,94689.38
2022-10-12T10:54:29.418Z,94715.84
2022-10-12T10:59:49.846Z,94709.94
2022-10-12T11:04:57.567Z,94702.03
2022-10-12T11:10:04.892Z,94700.59
2022-10-12T11:15:21.488Z,94707.09
2022-10-12T11:20:45.738Z,94709.25
2022-10-12T11:26:02.958Z,94703.44
2022-10-12T11:31:08.045Z,94711.94
2022-10-12T11:36:23.011Z,94702.53
2022-10-12T11:42:09.608Z,94701.75
2022-10-12T11:47:46.236Z,94695.34
2022-10-12T11:52:52.304Z,94681.41
2022-10-12T11:57:57.178Z,94681.50
2022-10-12T12:03:32.066Z,94668.75
2022-10-12T12:08:40.333Z,94666.44
2022-10-12T12:13:45.304Z,94658.28
2022-10-12T12:19:16.265Z,94663.22
2022-10-12T12:24:19.328Z,94661.22
2022-10-12T12:29:27.595Z,94648.13
2022-10-12T12:34:32.711Z,94647.00
2022-10-12T12:39:35.833Z,94627.84
2022-10-12T12:44:43.120Z,94628.34
2022-10-12T12:49:46.856Z,94621.69
2022-10-12T12:55:09.808Z,94601.41
2022-10-12T13:00:13.502Z,94614.31
2022-10-12T13:05:40.416Z,94605.81
2022-10-12T13:11:13.387Z,94599.56
2022-10-12T13:17:30.082Z,94592.25
2022-10-12T13:22:03.573Z,94584.09
2022-10-12T13:27:18.211Z,94585.63
2022-10-12T13:32:35.734Z,94557.25
2022-10-12T13:37:37.831Z,94562.81
2022-10-12T13:42:39.803Z,94557.34
2022-10-12T13:47:44.912Z,94563.56
2022-10-12T13:52:54.361Z,94554.34
2022-10-12T13:57:56.493Z,94548.97
2022-10-12T14:03:02.706Z,94553.66
2022-10-12T14:08:15.837Z,94526.09
2022-10-12T14:13:29.007Z,94542.78
2022-10-12T14:18:35.583Z,94527.63
2022-10-12T14:23:46.142Z,94542.78
2022-10-12T14:28:53.739Z,94512.13
2022-10-12T14:33:56.721Z,94532.72
2022-10-12T14:39:12.835Z,94526.88
2022-10-12T14:44:18.800Z,94536.22
2022-10-12T14:49:32.729Z,94507.81
2022-10-12T14:54:35.198Z,94523.78
2022-10-12T14:59:39.428Z,94504.38
2022-10-12T15:04:42.010Z,94511.75
2022-10-12T15:09:44.396Z,94500.50
2022-10-12T15:14:47.250Z,94482.25
2022-10-12T15:19:50.653Z,94505.56
2022-10-12T15:24:54.282Z,94496.63
2022-10-12T15:29:56.537Z,94511.00
2022-10-12T15:34:58.870Z,94493.91
2022-10-12T15:40:01.020Z,94505.53
2022-10-12T15:45:03.069Z,94502.84
2022-10-12T15:50:05.544Z,94509.44
2022-10-12T15:55:18.771Z,94507.09
2022-10-12T16:00:23.492Z,94515.63
2022-10-12T16:05:29.441Z,94511.34
2022-10-12T16:10:41.957Z,94517.53
2022-10-12T16:15:44.151Z,94510.13
2022-10-12T16:20:51.158Z,94510.44
2022-10-12T16:25:56.633Z,94499.56
2022-10-12T16:30:58.649Z,94520.53
2022-10-12T16:36:08.770Z,94498.38
2022-10-12T16:41:19.652Z,94509.28
2022-10-12T16:46:21.475Z,94482.84
2022-10-12T16:51:23.320Z,94506.50
2022-10-12T16:56:25.307Z,94495.19
2022-10-12T17:01:27.429Z,94500.84
2022-10-12T17:06:29.699Z,94491.00
2022-10-12T17:11:31.612Z,94504.81
2022-10-12T17:17:02.912Z,94505.53
2022-10-12T17:22:07.218Z,94511.97
2022-10-12T17:27:11.287Z,94515.06
2022-10-12T17:32:13.586Z,94519.97
2022-10-12T17:37:16.086Z,94550.97
2022-10-12T17:42:20.576Z,94530.00
2022-10-12T17:47:22.730Z,94544.38
2022-10-12T17:52:24.668Z,94539.19
2022-10-12T17:57:26.586Z,94553.91
2022-10-12T18:02:28.660Z,94546.94
2022-10-12T18:07:30.433Z,94558.34
2022-10-12T18:12:32.331Z,94575.38
2022-10-12T18:17:35.023Z,94587.06
2022-10-12T18:22:36.872Z,94580.13
2022-10-12T18:27:38.854Z,94592.59
2022-10-12T18:32:40.783Z,94599.16
2022-10-12T18:37:43.440Z,94598.72
2022-10-12T18:42:45.298Z,94611.13
2022-10-12T18:47:47.725Z,94596.63
2022-10-12T18:52:49.589Z,94613.72
2022-10-12T18:57:51.576Z,94620.53
2022-10-12T19:02:53.552Z,94627.41
2022-10-12T19:07:55.560Z,94639.19
2022-10-12T19:12:58.773Z,94637.97
2022-10-12T19:18:00.716Z,94652.22
2022-10-12T19:23:02.845Z,94657.69
2022-10-12T19:28:04.959Z,94666.59
2022-10-12T19:33:06.964Z,94650.56
2022-10-12T19:38:08.875Z,94670.63
2022-10-12T19:43:10.879Z,94664.31
2022-10-12T19:48:13.159Z,94685.38
2022-10-12T19:53:15.374Z,94700.69
2022-10-12T19:58:17.538Z,94686.97
2022-10-12T20:03:19.418Z,94703.25
2022-10-12T20:08:21.317Z,94703.84
2022-10-12T20:13:26.011Z,94716.34
2022-10-12T20:18:29.051Z,94713.56
2022-10-12T20:23:37.871Z,94719.28
2022-10-12T20:28:40.126Z,94710.94
2022-10-12T20:33:42.375Z,94737.94
2022-10-12T20:38:44.710Z,94744.28
2022-10-12T20:43:46.732Z,94723.44
2022-10-12T20:48:48.614Z,94752.94
2022-10-12T20:53:53.906Z,94744.19
2022-10-12T20:58:55.868Z,94759.97
2022-10-12T21:03:57.877Z,94772.06
2022-10-12T21:08:59.944Z,94768.19
2022-10-12T21:14:02.102Z,94774.13
2022-10-12T21:19:04.578Z,94772.66
2022-10-12T21:24:06.832Z,94754.84
2022-10-12T21:29:09.100Z,94761.03
2022-10-12T21:34:11.764Z,94783.00
2022-10-12T21:39:15.273Z,94790.16
2022-10-12T21:44:17.323Z,94796.69
2022-10-12T21:49:19.195Z,94791.66
2022-10-12T21:54:21.018Z,94787.56
2022-10-12T21:59:22.898Z,94771.03
2022-10-12T22:04:24.880Z,94769.13
2022-10-12T22:09:26.915Z,94754.19
2022-10-12T22:14:28.878Z,94756.97
2022-10-12T22:19:31.185Z,94757.81
2022-10-12T22:24:33.106Z,94763.47
2022-10-12T22:29:35.339Z,94758.38
2022-10-12T22:34:37.345Z,94770.75
2022-10-12T22:39:39.273Z,94766.75
2022-10-12T22:44:41.500Z,94773.25
2022-10-12T22:49:43.445Z,94792.09
2022-10-12T22:54:50.097Z,94788.59
2022-10-12T22:59:52.052Z,94793.31
2022-10-12T23:04:54.990Z,94798.28
2022-10-12T23:09:56.841Z,94798.03
2022-10-12T23:14:58.677Z,94822.06
2022-10-12T23:20:00.519Z,94836.88
2022-10-12T23:25:02.414Z,94814.94
2022-10-12T23:30:04.566Z,94825.03
2022-10-12T23:35:06.615Z,94832.22
2022-10-12T23:40:09.190Z,94821.13
2022-10-12T23:45:11.154Z,94817.91
2022-10-12T23:50:13.034Z,94816.19
2022-10-12T23:55:15.027Z,94829.53
